createdAt,value
2017-07-11T00:00:56.787Z,1.80
2017-07-11T00:03:23.071Z,1.70
2017-07-11T00:05:49.329Z,1.80
2017-07-11T00:08:15.594Z,1.80
2017-07-11T00:10:42.606Z,1.83
2017-07-11T00:13:08.890Z,1.50
2017-07-11T00:15:35.160Z,1.47
2017-07-11T00:18:01.425Z,1.50
2017-07-11T00:20:27.691Z,2.07
2017-07-11T00:22:53.963Z,1.40
2017-07-11T00:25:20.217Z,1.20
2017-07-11T00:27:46.502Z,0.87
2017-07-11T00:30:12.792Z,1.20
2017-07-11T00:32:39.054Z,1.03
2017-07-11T00:35:05.330Z,1.53
2017-07-11T00:37:32.339Z,1.70
2017-07-11T00:39:59.656Z,0.87
2017-07-11T00:42:25.913Z,1.40
2017-07-11T00:44:52.177Z,1.40
2017-07-11T00:47:18.443Z,1.17
2017-07-11T00:49:44.714Z,1.40
2017-07-11T00:52:11.004Z,1.20
2017-07-11T00:54:37.270Z,0.90
2017-07-11T00:57:03.579Z,1.10
2017-07-11T00:59:29.855Z,0.70
2017-07-11T01:01:56.867Z,0.80
2017-07-11T01:04:23.141Z,0.80
2017-07-11T01:06:49.409Z,0.70
2017-07-11T01:09:15.693Z,0.63
2017-07-11T01:11:42.697Z,0.57
2017-07-11T01:14:09.020Z,0.77
2017-07-11T01:16:35.320Z,0.60
2017-07-11T01:19:01.590Z,0.47
2017-07-11T01:21:27.857Z,0.40
2017-07-11T01:23:54.897Z,0.60
2017-07-11T01:26:21.167Z,0.80
2017-07-11T01:28:47.470Z,0.50
2017-07-11T01:31:13.746Z,0.70
2017-07-11T01:33:40.057Z,0.60
2017-07-11T01:36:06.337Z,0.70
2017-07-11T01:38:32.634Z,0.67
2017-07-11T01:40:58.925Z,0.50
2017-07-11T01:43:25.191Z,0.50
2017-07-11T01:45:51.486Z,0.50
2017-07-11T01:48:17.766Z,0.60
2017-07-11T01:50:44.052Z,0.60
2017-07-11T01:53:10.361Z,0.50
2017-07-11T01:55:36.669Z,0.77
2017-07-11T01:58:02.950Z,0.50
2017-07-11T02:00:29.334Z,0.57
2017-07-11T02:02:55.629Z,0.43
2017-07-11T02:05:21.926Z,0.40
2017-07-11T02:07:48.232Z,0.57
2017-07-11T02:10:15.268Z,0.60
2017-07-11T02:12:41.553Z,0.40
2017-07-11T02:15:07.892Z,0.50
2017-07-11T02:17:34.163Z,0.67
2017-07-11T02:20:00.435Z,0.50
2017-07-11T02:22:26.724Z,0.50
2017-07-11T02:24:53.731Z,0.60
2017-07-11T02:27:20.017Z,0.50
2017-07-11T02:29:46.282Z,1.00
2017-07-11T02:32:12.549Z,0.50
2017-07-11T02:34:39.573Z,0.60
2017-07-11T02:37:05.833Z,0.53
2017-07-11T02:39:32.839Z,0.50
2017-07-11T02:41:59.116Z,0.50
2017-07-11T02:44:26.130Z,0.57
2017-07-11T02:46:52.429Z,0.80
2017-07-11T02:49:18.718Z,0.50
2017-07-11T02:51:44.974Z,0.40
2017-07-11T02:54:11.241Z,0.40
2017-07-11T02:56:37.508Z,0.60
2017-07-11T02:59:03.814Z,0.57
2017-07-11T03:01:30.085Z,0.40
2017-07-11T03:03:57.379Z,0.57
2017-07-11T03:06:24.642Z,0.60
2017-07-11T03:08:50.901Z,0.57
2017-07-11T03:11:17.190Z,0.57
2017-07-11T03:13:43.433Z,0.63
2017-07-11T03:16:09.727Z,0.70
2017-07-11T03:18:35.987Z,0.50
2017-07-11T03:21:02.260Z,0.50
2017-07-11T03:23:28.542Z,0.60
2017-07-11T03:25:54.825Z,0.50
2017-07-11T03:28:21.085Z,0.63
2017-07-11T03:30:47.351Z,0.77
2017-07-11T03:33:13.619Z,0.50
2017-07-11T03:35:40.942Z,0.53
2017-07-11T03:38:07.209Z,0.80
2017-07-11T03:40:33.477Z,0.70
2017-07-11T03:42:59.773Z,0.77
2017-07-11T03:45:26.048Z,0.57
2017-07-11T03:47:53.078Z,0.50
2017-07-11T03:50:19.350Z,0.90
2017-07-11T03:52:45.607Z,0.90
2017-07-11T03:55:11.873Z,0.70
2017-07-11T03:57:38.150Z,0.67
2017-07-11T04:00:04.455Z,0.67
2017-07-11T04:02:30.709Z,0.80
2017-07-11T04:04:56.977Z,0.67
2017-07-11T04:07:23.236Z,0.67
2017-07-11T04:09:49.506Z,0.77
2017-07-11T04:12:15.800Z,1.10
2017-07-11T04:14:42.068Z,1.00
2017-07-11T04:17:08.325Z,0.77
2017-07-11T04:19:35.338Z,0.80
2017-07-11T04:22:01.594Z,0.90
2017-07-11T04:24:27.898Z,0.70
2017-07-11T04:26:54.183Z,0.63
2017-07-11T04:29:21.501Z,0.83
2017-07-11T04:31:47.764Z,0.80
2017-07-11T04:34:14.023Z,1.23
2017-07-11T04:36:40.308Z,0.90
2017-07-11T04:39:06.594Z,0.90
2017-07-11T04:41:32.859Z,1.13
2017-07-11T04:43:59.119Z,0.97
2017-07-11T04:46:25.390Z,0.70
2017-07-11T04:48:52.683Z,0.90
2017-07-11T04:51:20.001Z,0.90
2017-07-11T04:53:46.270Z,0.80
2017-07-11T04:56:12.546Z,0.90
2017-07-11T04:58:39.833Z,0.90
2017-07-11T05:01:06.119Z,0.90
2017-07-11T05:03:32.379Z,1.17
2017-07-11T05:05:58.637Z,1.10
2017-07-11T05:08:24.886Z,0.93
2017-07-11T05:10:51.151Z,1.03
2017-07-11T05:13:17.429Z,1.03
2017-07-11T05:15:43.685Z,1.03
2017-07-11T05:18:09.958Z,1.03
2017-07-11T05:20:36.229Z,0.80
2017-07-11T05:23:03.904Z,1.03
2017-07-11T05:25:30.189Z,1.07
2017-07-11T05:27:57.471Z,0.80
2017-07-11T05:30:23.731Z,1.10
2017-07-11T05:32:50.994Z,1.90
2017-07-11T05:35:18.269Z,1.23
2017-07-11T05:37:45.298Z,1.23
2017-07-11T05:40:11.590Z,1.10
2017-07-11T05:42:37.854Z,1.10
2017-07-11T05:45:04.146Z,1.23
2017-07-11T05:47:30.403Z,0.73
2017-07-11T05:49:56.730Z,1.47
2017-07-11T05:52:22.997Z,0.90
2017-07-11T05:54:50.013Z,1.33
2017-07-11T05:57:16.289Z,1.10
2017-07-11T05:59:42.553Z,1.10
2017-07-11T06:02:08.855Z,1.53
2017-07-11T06:04:35.118Z,1.30
2017-07-11T06:07:01.397Z,1.10
2017-07-11T06:09:27.671Z,1.43
2017-07-11T06:11:53.926Z,0.90
2017-07-11T06:14:20.217Z,1.40
2017-07-11T06:16:46.473Z,1.40
2017-07-11T06:19:12.738Z,1.20
2017-07-11T06:21:39.020Z,1.33
2017-07-11T06:24:05.298Z,1.30
2017-07-11T06:26:31.582Z,1.20
2017-07-11T06:28:57.846Z,1.30
2017-07-11T06:31:24.110Z,1.37
2017-07-11T06:33:50.373Z,1.73
2017-07-11T06:36:16.639Z,1.20
2017-07-11T06:38:44.714Z,1.20
2017-07-11T06:41:11.973Z,1.40
2017-07-11T06:43:39.269Z,1.30
2017-07-11T06:46:05.551Z,1.23
2017-07-11T06:48:31.822Z,1.47
2017-07-11T06:50:58.101Z,1.33
2017-07-11T06:53:24.360Z,1.43
2017-07-11T06:55:50.622Z,1.43
2017-07-11T06:58:16.939Z,1.60
2017-07-11T07:00:43.195Z,1.20
2017-07-11T07:03:09.472Z,1.30
2017-07-11T07:05:35.729Z,1.43
2017-07-11T07:08:02.011Z,1.23
2017-07-11T07:10:28.273Z,1.50
2017-07-11T07:12:54.542Z,1.40
2017-07-11T07:15:20.839Z,1.23
2017-07-11T07:17:47.127Z,1.27
2017-07-11T07:20:13.401Z,1.10
2017-07-11T07:22:39.662Z,1.40
2017-07-11T07:25:06.666Z,1.60
2017-07-11T07:27:33.970Z,1.27
2017-07-11T07:30:00.958Z,1.00
2017-07-11T07:32:27.221Z,1.13
2017-07-11T07:34:53.481Z,1.50
2017-07-11T07:37:19.747Z,1.17
2017-07-11T07:39:46.030Z,1.13
2017-07-11T07:42:13.028Z,0.90
2017-07-11T07:44:39.294Z,1.03
2017-07-11T07:47:06.298Z,1.40
2017-07-11T07:49:32.571Z,1.23
2017-07-11T07:51:58.878Z,0.63
2017-07-11T07:54:25.158Z,1.03
2017-07-11T07:56:51.580Z,1.20
2017-07-11T07:59:17.843Z,1.00
2017-07-11T08:01:44.130Z,1.27
2017-07-11T08:04:11.130Z,1.10
2017-07-11T08:06:38.459Z,1.37
2017-07-11T08:09:04.818Z,0.97
2017-07-11T08:11:31.135Z,1.07
2017-07-11T08:13:57.407Z,0.97
2017-07-11T08:16:24.717Z,1.00
2017-07-11T08:18:50.990Z,1.20
2017-07-11T08:21:18.008Z,0.90
2017-07-11T08:23:44.265Z,1.00
2017-07-11T08:26:12.294Z,0.70
2017-07-11T08:28:38.562Z,0.90
2017-07-11T08:31:04.830Z,0.77
2017-07-11T08:33:31.181Z,1.00
2017-07-11T08:35:57.450Z,0.90
2017-07-11T08:38:23.741Z,1.17
2017-07-11T08:40:50.052Z,1.07
2017-07-11T08:43:16.314Z,1.00
2017-07-11T08:45:42.569Z,1.10
2017-07-11T08:48:09.573Z,1.03
2017-07-11T08:50:35.842Z,1.00
2017-07-11T08:53:02.117Z,1.00
2017-07-11T08:55:28.373Z,1.27
2017-07-11T08:57:54.635Z,0.90
2017-07-11T09:00:21.634Z,0.97
2017-07-11T09:02:47.891Z,1.10
2017-07-11T09:05:15.212Z,1.10
2017-07-11T09:07:41.474Z,1.00
2017-07-11T09:10:07.727Z,0.90
2017-07-11T09:12:33.990Z,1.10
2017-07-11T09:15:00.249Z,0.77
2017-07-11T09:17:26.530Z,1.20
2017-07-11T09:19:52.782Z,1.00
2017-07-11T09:22:19.247Z,1.00
2017-07-11T09:24:45.519Z,0.87
2017-07-11T09:27:11.781Z,1.00
2017-07-11T09:29:38.065Z,0.87
2017-07-11T09:32:04.325Z,0.70
2017-07-11T09:34:30.589Z,0.90
2017-07-11T09:36:56.842Z,0.80
2017-07-11T09:39:23.122Z,1.00
2017-07-11T09:41:49.398Z,0.80
2017-07-11T09:44:15.659Z,1.00
2017-07-11T09:46:41.911Z,1.00
2017-07-11T09:49:08.178Z,1.17
2017-07-11T09:51:36.180Z,1.03
2017-07-11T09:54:02.461Z,1.00
2017-07-11T09:56:28.714Z,1.00
2017-07-11T09:58:54.976Z,0.93
2017-07-11T10:01:21.238Z,1.13
2017-07-11T10:03:47.494Z,1.17
2017-07-11T10:06:13.801Z,0.90
2017-07-11T10:08:40.078Z,0.90
2017-07-11T10:11:06.337Z,0.80
2017-07-11T10:13:32.602Z,1.13
2017-07-11T10:15:59.603Z,0.87
2017-07-11T10:18:25.878Z,1.30
2017-07-11T10:20:52.882Z,0.90
2017-07-11T10:23:19.149Z,1.00
2017-07-11T10:25:45.398Z,0.97
2017-07-11T10:28:11.662Z,1.03
2017-07-11T10:30:37.946Z,0.90
2017-07-11T10:33:04.210Z,1.00
2017-07-11T10:35:30.475Z,0.67
2017-07-11T10:37:56.738Z,1.00
2017-07-11T10:40:22.998Z,0.87
2017-07-11T10:42:49.263Z,0.90
2017-07-11T10:45:15.529Z,1.03
2017-07-11T10:47:41.786Z,0.80
2017-07-11T10:50:08.048Z,0.80
2017-07-11T10:52:34.307Z,0.80
2017-07-11T10:55:00.974Z,0.80
2017-07-11T10:57:27.233Z,1.20
2017-07-11T10:59:53.498Z,1.10
2017-07-11T11:02:19.747Z,0.90
2017-07-11T11:04:46.030Z,0.80
2017-07-11T11:07:12.319Z,0.90
2017-07-11T11:09:38.593Z,0.87
2017-07-11T11:12:04.854Z,1.07
2017-07-11T11:14:31.115Z,0.83
2017-07-11T11:16:57.371Z,1.17
2017-07-11T11:19:23.666Z,0.90
2017-07-11T11:21:49.922Z,0.87
2017-07-11T11:24:16.185Z,1.10
2017-07-11T11:26:43.194Z,1.47
2017-07-11T11:29:09.453Z,1.17
2017-07-11T11:31:36.470Z,1.17
2017-07-11T11:34:02.734Z,1.10
2017-07-11T11:36:28.985Z,1.47
2017-07-11T11:38:55.238Z,0.90
2017-07-11T11:41:21.531Z,1.30
2017-07-11T11:43:47.829Z,0.97
2017-07-11T11:46:14.832Z,1.07
2017-07-11T11:48:41.094Z,0.93
2017-07-11T11:51:07.354Z,1.23
2017-07-11T11:53:33.603Z,1.03
2017-07-11T11:55:59.886Z,1.10
2017-07-11T11:58:26.890Z,0.90
2017-07-11T12:00:53.153Z,1.03
2017-07-11T12:03:19.397Z,1.00
2017-07-11T12:05:46.422Z,1.23
2017-07-11T12:08:12.704Z,1.03
2017-07-11T12:10:38.969Z,0.80
2017-07-11T12:13:05.226Z,1.30
2017-07-11T12:15:33.225Z,1.10
2017-07-11T12:17:59.481Z,0.90
2017-07-11T12:20:25.757Z,1.10
2017-07-11T12:22:52.761Z,1.17
2017-07-11T12:25:19.012Z,0.93
2017-07-11T12:27:45.275Z,0.93
2017-07-11T12:30:11.538Z,0.93
2017-07-11T12:32:37.806Z,1.03
2017-07-11T12:35:04.075Z,0.87
2017-07-11T12:37:30.350Z,1.10
2017-07-11T12:39:56.616Z,1.00
2017-07-11T12:42:22.881Z,0.97
2017-07-11T12:44:50.502Z,1.13
2017-07-11T12:47:16.792Z,1.00
2017-07-11T12:49:43.050Z,1.10
2017-07-11T12:52:09.306Z,1.10
2017-07-11T12:54:35.557Z,1.23
2017-07-11T12:57:01.850Z,1.00
2017-07-11T12:59:28.117Z,1.00
2017-07-11T13:01:54.371Z,1.10
2017-07-11T13:04:20.638Z,1.20
2017-07-11T13:06:46.914Z,1.10
2017-07-11T13:09:13.193Z,1.30
2017-07-11T13:11:39.466Z,0.90
2017-07-11T13:14:05.730Z,0.90
2017-07-11T13:16:32.739Z,1.50
2017-07-11T13:18:59.002Z,1.23
2017-07-11T13:21:26.031Z,1.00
2017-07-11T13:23:52.297Z,0.90
2017-07-11T13:26:18.562Z,1.00
2017-07-11T13:28:44.830Z,0.90
2017-07-11T13:31:11.094Z,1.00
2017-07-11T13:33:37.377Z,0.97
2017-07-11T13:36:03.660Z,0.83
2017-07-11T13:38:29.914Z,1.00
2017-07-11T13:40:56.167Z,0.97
2017-07-11T13:43:22.434Z,1.10
2017-07-11T13:45:48.717Z,1.43
2017-07-11T13:48:14.973Z,1.10
2017-07-11T13:50:41.970Z,1.30
2017-07-11T13:53:08.219Z,1.13
2017-07-11T13:55:34.481Z,1.23
2017-07-11T13:58:00.778Z,0.90
2017-07-11T14:00:27.042Z,0.80
2017-07-11T14:02:53.298Z,0.87
2017-07-11T14:05:19.554Z,1.23
2017-07-11T14:07:45.822Z,1.30
2017-07-11T14:10:12.826Z,1.30
2017-07-11T14:12:39.101Z,1.00
2017-07-11T14:15:06.122Z,1.10
2017-07-11T14:17:32.387Z,0.90
2017-07-11T14:19:58.678Z,0.90
2017-07-11T14:22:24.941Z,0.80
2017-07-11T14:24:51.202Z,1.27
2017-07-11T14:27:17.483Z,1.27
2017-07-11T14:29:44.496Z,0.80
2017-07-11T14:32:10.774Z,1.00
2017-07-11T14:34:37.031Z,1.07
2017-07-11T14:37:03.290Z,0.93
2017-07-11T14:39:29.561Z,1.27
2017-07-11T14:41:55.825Z,0.97
2017-07-11T14:44:22.101Z,1.00
2017-07-11T14:46:49.102Z,1.00
2017-07-11T14:49:15.362Z,1.00
2017-07-11T14:51:41.658Z,0.90
2017-07-11T14:54:07.942Z,0.80
2017-07-11T14:56:34.205Z,1.20
2017-07-11T14:59:00.461Z,0.70
2017-07-11T15:01:26.712Z,0.63
2017-07-11T15:03:53.738Z,1.00
2017-07-11T15:06:20.000Z,1.10
2017-07-11T15:08:46.267Z,1.40
2017-07-11T15:11:12.578Z,1.00
2017-07-11T15:13:39.558Z,1.30
2017-07-11T15:16:05.834Z,0.90
2017-07-11T15:18:32.121Z,1.17
2017-07-11T15:20:58.406Z,0.93
2017-07-11T15:23:24.685Z,1.07
2017-07-11T15:25:50.935Z,1.40
2017-07-11T15:28:17.962Z,1.27
2017-07-11T15:30:44.227Z,1.20
2017-07-11T15:33:10.494Z,1.30
2017-07-11T15:35:36.777Z,1.00
2017-07-11T15:38:03.769Z,1.13
2017-07-11T15:40:30.030Z,1.00
2017-07-11T15:42:56.293Z,1.27
2017-07-11T15:45:22.549Z,1.10
2017-07-11T15:47:48.836Z,1.13
2017-07-11T15:52:47.194Z,1.30
2017-07-11T15:55:13.452Z,0.90
2017-07-11T15:57:40.455Z,1.13
2017-07-11T16:00:06.737Z,1.30
2017-07-11T16:02:33.766Z,1.03
2017-07-11T16:05:00.029Z,1.40
2017-07-11T16:07:26.315Z,1.50
2017-07-11T16:09:52.610Z,1.00
2017-07-11T16:12:19.929Z,1.27
2017-07-11T16:14:46.211Z,1.33
2017-07-11T16:17:12.486Z,1.30
2017-07-11T16:19:38.771Z,1.43
2017-07-11T16:22:05.052Z,1.10
2017-07-11T16:24:32.361Z,1.17
2017-07-11T16:26:58.642Z,1.20
2017-07-11T16:29:24.922Z,1.60
2017-07-11T16:31:51.205Z,1.20
2017-07-11T16:34:17.483Z,1.10
2017-07-11T16:36:43.750Z,1.20
2017-07-11T16:39:10.031Z,1.30
2017-07-11T16:41:36.335Z,0.90
2017-07-11T16:44:02.629Z,0.97
2017-07-11T16:46:28.901Z,1.13
2017-07-11T16:48:55.158Z,1.07
2017-07-11T16:51:21.414Z,1.20
2017-07-11T16:53:47.683Z,1.37
2017-07-11T16:56:13.962Z,1.00
2017-07-11T16:58:40.255Z,1.00
2017-07-11T17:01:06.510Z,1.70
2017-07-11T17:03:33.520Z,1.20
2017-07-11T17:05:59.782Z,1.17
2017-07-11T17:08:26.068Z,1.53
2017-07-11T17:10:52.329Z,1.47
2017-07-11T17:13:18.583Z,1.23
2017-07-11T17:15:45.587Z,1.13
2017-07-11T17:18:11.865Z,1.60
2017-07-11T17:20:38.169Z,1.43
2017-07-11T17:23:04.465Z,1.47
2017-07-11T17:25:31.758Z,1.10
2017-07-11T17:27:58.790Z,1.43
2017-07-11T17:30:25.049Z,1.30
2017-07-11T17:32:51.333Z,1.30
2017-07-11T17:35:17.590Z,1.00
2017-07-11T17:37:43.858Z,1.27
2017-07-11T17:40:10.143Z,1.30
2017-07-11T17:42:37.191Z,1.13
2017-07-11T17:45:04.197Z,1.30
2017-07-11T17:47:30.477Z,1.07
2017-07-11T17:49:57.530Z,2.00
2017-07-11T17:52:23.798Z,1.40
2017-07-11T17:54:50.082Z,1.47
2017-07-11T17:57:17.068Z,1.60
2017-07-11T17:59:43.369Z,1.20
2017-07-11T18:02:09.656Z,1.20
2017-07-11T18:04:35.933Z,1.67
2017-07-11T18:07:02.190Z,1.33
2017-07-11T18:09:28.491Z,1.07
2017-07-11T18:11:55.770Z,1.60
2017-07-11T18:14:22.365Z,1.27
2017-07-11T18:16:48.654Z,1.63
2017-07-11T18:19:14.946Z,1.20
2017-07-11T18:21:41.238Z,1.17
2017-07-11T18:24:07.542Z,1.57
2017-07-11T18:26:33.801Z,1.50
2017-07-11T18:29:00.093Z,1.80
2017-07-11T18:31:26.377Z,1.70
2017-07-11T18:33:52.646Z,1.30
2017-07-11T18:36:18.904Z,1.30
2017-07-11T18:38:45.247Z,1.77
2017-07-11T18:41:12.274Z,1.37
2017-07-11T18:43:38.545Z,1.43
2017-07-11T18:46:04.813Z,1.60
2017-07-11T18:48:31.123Z,2.37
2017-07-11T18:50:57.594Z,1.77
2017-07-11T18:53:23.880Z,1.90
2017-07-11T18:55:50.161Z,2.00
2017-07-11T18:58:16.466Z,1.80
2017-07-11T19:00:42.735Z,1.80
2017-07-11T19:03:10.378Z,2.20
2017-07-11T19:05:36.638Z,2.27
2017-07-11T19:08:03.171Z,2.33
2017-07-11T19:10:29.501Z,2.00
2017-07-11T19:12:55.798Z,2.23
2017-07-11T19:15:22.065Z,2.03
2017-07-11T19:17:48.337Z,2.87
2017-07-11T19:20:14.622Z,2.50
2017-07-11T19:22:40.885Z,2.90
2017-07-11T19:25:07.181Z,2.83
2017-07-11T19:27:33.446Z,2.10
2017-07-11T19:29:59.702Z,3.20
2017-07-11T19:32:25.978Z,3.27
2017-07-11T19:34:52.239Z,3.33
2017-07-11T19:37:18.525Z,3.60
2017-07-11T19:39:44.797Z,3.20
2017-07-11T19:42:11.069Z,3.43
2017-07-11T19:44:37.489Z,2.93
2017-07-11T19:47:03.827Z,3.43
2017-07-11T19:49:30.114Z,3.27
2017-07-11T19:51:56.381Z,3.00
2017-07-11T19:54:23.430Z,4.13
2017-07-11T19:56:49.686Z,3.60
2017-07-11T19:59:15.946Z,3.63
2017-07-11T20:01:42.240Z,4.00
2017-07-11T20:04:08.524Z,4.40
2017-07-11T20:06:34.786Z,4.00
2017-07-11T20:09:01.094Z,3.80
2017-07-11T20:11:27.379Z,3.80
2017-07-11T20:13:53.640Z,4.17
2017-07-11T20:16:19.935Z,3.70
2017-07-11T20:18:46.225Z,3.83
2017-07-11T20:21:12.527Z,3.77
2017-07-11T20:23:38.822Z,3.73
2017-07-11T20:26:06.129Z,3.43
2017-07-11T20:28:33.429Z,3.70
2017-07-11T20:30:59.724Z,3.17
2017-07-11T20:33:26.095Z,2.97
2017-07-11T20:35:52.386Z,3.20
2017-07-11T20:38:18.665Z,2.40
2017-07-11T20:40:44.946Z,2.40
2017-07-11T20:43:11.239Z,2.50
2017-07-11T20:45:37.530Z,2.80
2017-07-11T20:48:03.829Z,2.30
2017-07-11T20:50:30.105Z,2.13
2017-07-11T20:52:57.288Z,1.87
2017-07-11T20:55:23.617Z,2.00
2017-07-11T20:57:51.164Z,2.00
2017-07-11T21:00:17.475Z,1.87
2017-07-11T21:02:43.739Z,2.00
2017-07-11T21:05:10.770Z,2.70
2017-07-11T21:07:37.042Z,2.17
2017-07-11T21:10:03.303Z,2.40
2017-07-11T21:12:29.593Z,2.07
2017-07-11T21:14:57.916Z,1.80
2017-07-11T21:17:24.190Z,2.27
2017-07-11T21:19:50.477Z,2.00
2017-07-11T21:22:16.757Z,2.67
2017-07-11T21:24:43.797Z,2.33
2017-07-11T21:27:10.079Z,2.00
2017-07-11T21:29:37.367Z,1.73
2017-07-11T21:32:04.366Z,2.40
2017-07-11T21:34:30.635Z,2.30
2017-07-11T21:36:56.941Z,1.93
2017-07-11T21:39:23.206Z,2.30
2017-07-11T21:41:49.478Z,2.00
2017-07-11T21:44:15.746Z,1.50
2017-07-11T21:46:42.757Z,1.60
2017-07-11T21:49:09.047Z,1.57
2017-07-11T21:51:35.316Z,2.20
2017-07-11T21:54:01.587Z,1.83
2017-07-11T21:56:29.626Z,1.90
2017-07-11T21:58:55.898Z,1.80
2017-07-11T22:01:22.185Z,2.43
2017-07-11T22:03:48.454Z,1.40
2017-07-11T22:06:14.717Z,1.93
2017-07-11T22:08:40.991Z,1.80
2017-07-11T22:11:07.294Z,1.70
2017-07-11T22:13:33.612Z,1.90
2017-07-11T22:15:59.889Z,1.63
2017-07-11T22:18:26.165Z,1.43
2017-07-11T22:20:52.443Z,1.67
2017-07-11T22:23:19.469Z,1.30
2017-07-11T22:25:45.754Z,1.57
2017-07-11T22:28:12.050Z,1.80
2017-07-11T22:30:39.092Z,2.00
2017-07-11T22:33:06.113Z,1.60
2017-07-11T22:35:32.387Z,1.80
2017-07-11T22:37:58.679Z,1.80
2017-07-11T22:40:24.973Z,1.70
2017-07-11T22:42:51.243Z,2.00
2017-07-11T22:45:17.522Z,1.80
2017-07-11T22:47:43.795Z,2.00
2017-07-11T22:50:10.091Z,2.10
2017-07-11T22:52:36.401Z,2.23
2017-07-11T22:55:02.674Z,1.93
2017-07-11T22:57:28.940Z,1.70
2017-07-11T22:59:55.228Z,2.20
2017-07-11T23:02:21.522Z,2.43
2017-07-11T23:04:47.814Z,2.13
2017-07-11T23:07:14.855Z,2.20
2017-07-11T23:09:41.162Z,1.90
2017-07-11T23:12:07.422Z,2.03
2017-07-11T23:14:34.457Z,2.23
2017-07-11T23:17:00.730Z,2.67
2017-07-11T23:19:27.036Z,2.33
2017-07-11T23:21:54.039Z,1.90
2017-07-11T23:24:20.314Z,2.73
2017-07-11T23:26:46.626Z,2.27
2017-07-11T23:29:13.646Z,2.27
2017-07-11T23:31:39.922Z,2.20
2017-07-11T23:34:06.917Z,2.20
2017-07-11T23:36:33.177Z,2.30
2017-07-11T23:39:00.211Z,2.30
2017-07-11T23:41:26.517Z,2.43
2017-07-11T23:43:52.824Z,2.37
2017-07-11T23:46:19.121Z,2.67
2017-07-11T23:48:46.127Z,2.20
2017-07-11T23:51:12.431Z,1.87
2017-07-11T23:53:38.697Z,2.20
2017-07-11T23:56:04.973Z,2.20
2017-07-11T23:58:31.243Z,2.20
